Time;durP1;ratioP1;P1;durP2;ratioP2;P2;SDS_P1;SDS_P2;PMS_P1;PMS_P2;Temp;Humidity;BMP_temperature;BMP_pressure;BME280_temperature;BME280_humidity;BME280_pressure;Samples;Min_cycle;Max_cycle;Signal;HPM_P1;HPM_P2
2022/02/09 00:04:42;;;;;;;2.00;1.80;;;;;;;6.65;100.00;99429.38;10374144;28;20062;-60
2022/02/09 00:09:48;;;;;;;3.85;2.22;;;;;;;6.67;100.00;99422.06;10369184;28;20058;-61
2022/02/09 00:15:03;;;;;;;2.08;1.80;;;;;;;6.66;100.00;99428.41;10368676;28;20056;-60
2022/02/09 00:31:30;;;;;;;2.08;1.60;;;;;;;6.65;100.00;99415.97;10413199;28;20049;-60
2022/02/09 00:37:15;;;;;;;2.60;1.85;;;;;;;6.67;100.00;99408.69;10413221;28;20034;-62
2022/02/09 00:42:28;;;;;;;2.90;2.00;;;;;;;6.69;100.00;99403.25;10365964;28;20129;-61
2022/02/09 01:57:27;;;;;;;1.85;1.65;;;;;;;6.73;100.00;99368.09;10360641;28;20050;-59
2022/02/09 02:02:31;;;;;;;1.60;1.50;;;;;;;6.84;100.00;99367.28;10342646;28;20055;-60
2022/02/09 02:07:44;;;;;;;2.03;1.75;;;;;;;6.84;100.00;99366.44;10358868;28;20038;-61
2022/02/09 02:12:55;;;;;;;2.05;1.60;;;;;;;6.83;100.00;99359.38;10358951;28;20046;-62
2022/02/09 02:17:59;;;;;;;2.30;1.70;;;;;;;6.81;100.00;99363.97;10359369;28;20344;-63
2022/02/09 02:23:28;;;;;;;1.52;1.40;;;;;;;6.75;100.00;99363.47;10357602;28;20092;-63
2022/02/09 02:28:48;;;;;;;2.03;1.90;;;;;;;6.71;100.00;99371.81;10359659;28;20038;-63
2022/02/09 03:12:00;;;;;;;1.83;1.73;;;;;;;6.55;100.00;99306.03;10360025;28;20092;-63
2022/02/09 03:17:04;;;;;;;2.05;1.60;;;;;;;6.56;100.00;99297.03;10358609;28;20059;-63
2022/02/09 03:22:22;;;;;;;2.80;1.67;;;;;;;6.54;100.00;99284.72;10358806;28;20521;-63
2022/02/09 03:27:43;;;;;;;1.25;1.20;;;;;;;6.54;100.00;99290.94;10352952;28;20034;-62
2022/02/09 03:44:19;;;;;;;1.20;1.10;;;;;;;6.53;100.00;99304.41;10358337;28;20050;-61
2022/02/09 03:49:36;;;;;;;1.17;1.00;;;;;;;6.52;100.00;99300.91;10359536;28;20100;-62
2022/02/09 03:54:52;;;;;;;1.13;1.00;;;;;;;6.59;100.00;99287.91;10357969;28;20149;-62
2022/02/09 03:59:59;;;;;;;1.20;1.10;;;;;;;6.58;100.00;99289.75;10356030;28;20121;-62
2022/02/09 04:05:02;;;;;;;0.80;0.80;;;;;;;6.59;100.00;99293.28;10358244;28;20379;-61
2022/02/09 04:10:09;;;;;;;1.05;1.00;;;;;;;6.60;100.00;99294.97;10359212;28;20038;-61
2022/02/09 04:15:24;;;;;;;1.20;1.10;;;;;;;6.60;100.00;99298.50;10340079;28;20049;-61
2022/02/09 04:22:24;;;;;;;1.77;0.90;;;;;;;6.60;100.00;99305.69;10360599;28;20040;-61
2022/02/09 04:36:50;;;;;;;1.30;1.20;;;;;;;6.65;100.00;99311.53;10365038;28;20124;-61
2022/02/09 04:42:18;;;;;;;2.20;2.00;;;;;;;6.66;100.00;99310.56;10365343;28;20069;-62
2022/02/09 04:47:47;;;;;;;2.63;1.40;;;;;;;6.65;100.00;99316.91;10365545;28;20507;-61
2022/02/09 04:53:01;;;;;;;1.30;1.20;;;;;;;6.65;100.00;99308.03;10357950;28;20049;-62
2022/02/09 04:58:11;;;;;;;1.35;1.25;;;;;;;6.65;100.00;99308.03;10324775;28;20165;-60
2022/02/09 05:20:22;;;;;;;1.00;1.00;;;;;;;6.65;100.00;99292.78;10324874;28;20038;-60
2022/02/09 05:25:27;;;;;;;1.23;1.05;;;;;;;6.62;100.00;99290.38;10319988;28;20129;-60
2022/02/09 05:30:31;;;;;;;1.20;1.10;;;;;;;6.63;100.00;99290.25;10321215;28;20060;-61
2022/02/09 05:35:36;;;;;;;1.70;1.10;;;;;;;6.61;100.00;99285.97;10317498;28;20061;-62
2022/02/09 05:40:41;;;;;;;0.93;0.90;;;;;;;6.59;100.00;99277.19;10323491;28;20038;-61
2022/02/09 05:46:05;;;;;;;1.00;1.00;;;;;;;6.54;100.00;99274.88;10325244;28;20126;-60
2022/02/09 05:51:16;;;;;;;1.00;1.00;;;;;;;6.56;100.00;99277.41;10321264;28;20134;-63
2022/02/09 05:56:33;;;;;;;1.10;0.80;;;;;;;6.57;100.00;99273.78;10342077;28;20112;-62
2022/02/09 06:01:37;;;;;;;1.60;0.82;;;;;;;6.52;100.00;99275.97;10361839;28;20049;-62
2022/02/09 06:06:42;;;;;;;1.17;1.05;;;;;;;6.56;100.00;99277.41;10359938;28;20053;-62
2022/02/09 06:11:49;;;;;;;2.90;1.30;;;;;;;6.54;100.00;99274.88;10359697;28;20046;-62
2022/02/09 06:22:14;;;;;;;1.13;1.00;;;;;;;6.61;100.00;99269.91;10359116;28;20045;-61
2022/02/09 06:27:17;;;;;;;2.45;1.35;;;;;;;6.60;100.00;99277.06;10359721;28;20112;-61
2022/02/09 06:32:20;;;;;;;1.52;1.30;;;;;;;6.62;100.00;99276.97;10343381;28;20104;-61
2022/02/09 06:37:36;;;;;;;1.42;1.33;;;;;;;6.61;100.00;99276.13;10356971;28;20069;-61
2022/02/09 06:42:39;;;;;;;1.30;1.20;;;;;;;6.56;100.00;99277.41;10358727;28;20153;-60
2022/02/09 06:47:42;;;;;;;1.27;1.10;;;;;;;6.51;100.00;99274.25;10342192;28;20478;-62
2022/02/09 06:52:58;;;;;;;1.10;1.00;;;;;;;6.49;100.00;99266.31;10361109;28;20065;-62
2022/02/09 06:58:05;;;;;;;1.00;0.90;;;;;;;6.56;100.00;99253.31;10356495;28;20165;-62
2022/02/09 07:03:08;;;;;;;1.17;1.10;;;;;;;6.61;100.00;99256.53;10358774;28;20495;-62
2022/02/09 07:08:14;;;;;;;1.05;1.02;;;;;;;6.67;100.00;99248.00;10355872;28;20054;-60
2022/02/09 07:13:20;;;;;;;1.38;1.20;;;;;;;6.69;100.00;99245.25;10356276;28;20066;-60
2022/02/09 07:18:24;;;;;;;1.10;1.00;;;;;;;6.68;100.00;99249.72;10357711;28;20149;-63
2022/02/09 07:23:33;;;;;;;2.78;1.25;;;;;;;6.66;100.00;99246.31;10358487;28;20116;-60
2022/02/09 07:28:37;;;;;;;1.20;1.10;;;;;;;6.66;100.00;99248.16;10358097;28;20041;-63
2022/02/09 07:33:42;;;;;;;1.52;1.17;;;;;;;6.65;100.00;99257.97;10358394;28;20068;-63
2022/02/09 07:38:46;;;;;;;1.20;1.10;;;;;;;6.64;100.00;99253.63;10357147;28;20506;-63
2022/02/09 07:44:03;;;;;;;1.30;1.20;;;;;;;6.63;100.00;99267.97;10356023;28;20060;-63
2022/02/09 07:49:10;;;;;;;1.52;1.40;;;;;;;6.66;100.00;99277.59;10357251;28;20034;-61
2022/02/09 07:54:14;;;;;;;1.40;1.27;;;;;;;6.69;100.00;99266.66;10355153;28;20737;-61
2022/02/09 07:59:18;;;;;;;1.42;1.23;;;;;;;6.68;100.00;99270.31;10362131;28;20046;-62
2022/02/09 08:05:10;;;;;;;1.63;1.45;;;;;;;6.69;100.00;99262.16;10347373;28;20061;-57
2022/02/09 08:10:21;;;;;;;1.55;1.45;;;;;;;6.71;100.00;99257.53;10363731;28;20557;-61
2022/02/09 08:31:58;;;;;;;1.85;1.60;;;;;;;6.75;100.00;99259.03;10359671;28;20479;-59
2022/02/09 08:37:02;;;;;;;1.60;1.50;;;;;;;6.75;100.00;99242.09;10363130;28;20054;-64
2022/02/09 08:42:07;;;;;;;1.50;1.40;;;;;;;6.75;100.00;99242.97;10365259;28;20180;-58
2022/02/09 08:47:10;;;;;;;1.48;1.38;;;;;;;6.76;100.00;99241.13;10365586;28;20509;-57
2022/02/09 08:52:13;;;;;;;1.50;1.40;;;;;;;6.78;100.00;99237.34;10363623;28;20507;-55
2022/02/09 08:57:20;;;;;;;2.00;1.70;;;;;;;6.80;100.00;99250.63;10363320;28;20109;-52
2022/02/09 09:02:31;;;;;;;1.63;1.50;;;;;;;6.79;100.00;99247.09;10364067;28;20129;-55
2022/02/09 09:07:36;;;;;;;1.77;1.67;;;;;;;6.82;100.00;99250.50;10357523;28;20124;-58
2022/02/09 09:18:52;;;;;;;1.60;1.40;;;;;;;6.90;100.00;99226.66;10360911;28;20108;-57
2022/02/09 10:01:32;;;;;;;1.67;1.58;;;;;;;7.15;100.00;99219.41;10360502;28;20073;-55
2022/02/09 10:33:52;;;;;;;1.50;1.40;;;;;;;7.69;100.00;99186.53;10361322;28;20126;-64
2022/02/09 10:39:07;;;;;;;1.52;1.42;;;;;;;7.77;100.00;99187.72;10344822;28;20132;-58
2022/02/09 10:44:13;;;;;;;1.60;1.50;;;;;;;7.84;100.00;99194.28;10358352;28;20454;-57
2022/02/09 10:49:20;;;;;;;3.85;1.50;;;;;;;7.88;100.00;99190.38;10361061;28;20081;-58
2022/02/09 10:54:25;;;;;;;1.50;1.40;;;;;;;7.95;100.00;99180.00;10342890;28;20522;-58
2022/02/09 10:59:34;;;;;;;2.97;1.10;;;;;;;8.05;100.00;99190.84;10353678;28;20561;-55
2022/02/09 11:04:41;;;;;;;1.45;0.93;;;;;;;8.23;100.00;99181.25;10346393;28;20552;-54
2022/02/09 11:09:44;;;;;;;0.93;0.93;;;;;;;8.32;100.00;99182.31;10363020;28;20066;-62
2022/02/09 11:14:48;;;;;;;1.48;0.95;;;;;;;8.40;100.00;99184.38;10360963;28;20497;-60
2022/02/09 11:19:53;;;;;;;1.55;1.20;;;;;;;8.45;100.00;99176.78;10360299;28;20479;-56
2022/02/09 11:25:10;;;;;;;1.20;1.10;;;;;;;8.48;100.00;99173.88;10359735;28;20522;-57
2022/02/09 11:30:23;;;;;;;1.20;1.00;;;;;;;8.56;100.00;99147.19;10356955;28;20078;-56
2022/02/09 11:35:35;;;;;;;2.75;1.20;;;;;;;8.60;100.00;99161.22;10359895;28;20072;-56
2022/02/09 11:40:45;;;;;;;1.20;1.10;;;;;;;8.60;100.00;99145.97;10358368;28;20116;-53
2022/02/09 11:46:07;;;;;;;1.15;1.00;;;;;;;8.62;100.00;99151.19;10340974;28;20502;-56
2022/02/09 11:51:35;;;;;;;1.33;1.23;;;;;;;8.58;100.00;99155.97;10359349;28;20058;-57
2022/02/09 11:57:01;;;;;;;1.00;1.00;;;;;;;8.60;100.00;99142.41;10360355;28;20056;-59
2022/02/09 12:13:49;;;;;;;1.27;1.10;;;;;;;8.54;100.00;99143.78;10366403;28;20065;-62
2022/02/09 12:19:02;;;;;;;1.15;1.05;;;;;;;8.61;100.00;99144.13;10383845;28;20189;-61
2022/02/09 12:24:27;;;;;;;1.02;0.93;;;;;;;8.56;100.00;99147.19;10355416;28;20533;-60
2022/02/09 12:29:33;;;;;;;2.88;1.00;;;;;;;8.59;100.00;99146.94;10355317;28;20187;-61
2022/02/09 12:34:39;;;;;;;1.27;1.00;;;;;;;8.58;100.00;99145.25;10353893;28;20592;-59
2022/02/09 12:39:53;;;;;;;2.20;1.05;;;;;;;8.55;100.00;99129.38;10357257;28;20141;-60
2022/02/09 12:45:02;;;;;;;1.00;0.90;;;;;;;8.58;100.00;99128.28;10339956;28;20100;-60
2022/02/09 12:50:08;;;;;;;2.25;1.00;;;;;;;8.62;100.00;99135.94;10359568;28;20057;-58
2022/02/09 12:55:16;;;;;;;1.05;0.80;;;;;;;8.69;100.00;99121.97;10362458;28;20050;-58
2022/02/09 13:00:25;;;;;;;1.92;0.80;;;;;;;8.68;100.00;99125.66;10363251;28;20671;-61
2022/02/09 13:05:30;;;;;;;0.80;0.70;;;;;;;8.75;100.00;99118.78;10365224;28;20057;-55
2022/02/09 13:10:37;;;;;;;1.27;0.95;;;;;;;8.77;100.00;99111.41;10360105;28;20067;-61
2022/02/09 13:15:47;;;;;;;0.80;0.80;;;;;;;8.76;100.00;99120.50;10361962;28;20049;-55
2022/02/09 13:21:34;;;;;;;0.90;0.90;;;;;;;8.73;100.00;99110.00;10361421;28;20125;-57
2022/02/09 13:51:42;;;;;;;0.80;0.80;;;;;;;8.76;100.00;99102.50;10345513;28;20642;-64
2022/02/09 14:48:08;;;;;;;1.00;0.73;;;;;;;8.59;100.00;99108.47;10357151;28;20124;-57
2022/02/09 14:53:21;;;;;;;4.45;0.90;;;;;;;8.60;100.00;99113.75;10360280;28;20490;-59
2022/02/09 14:58:26;;;;;;;1.35;0.80;;;;;;;8.55;100.00;99110.59;10358094;28;21119;-58
2022/02/09 15:04:13;;;;;;;3.22;0.93;;;;;;;8.56;100.00;99108.75;10342687;28;20135;-60
2022/02/09 15:09:19;;;;;;;1.05;0.70;;;;;;;8.53;100.00;99109.84;10358184;28;20129;-57
2022/02/09 15:14:29;;;;;;;0.85;0.70;;;;;;;8.51;100.00;99102.91;10360263;28;20120;-56
2022/02/09 15:19:55;;;;;;;1.55;1.45;;;;;;;8.46;100.00;99105.97;10358624;28;20430;-53
2022/02/09 15:24:59;;;;;;;1.92;1.60;;;;;;;8.39;100.00;99107.50;10359994;28;20081;-59
2022/02/09 15:30:03;;;;;;;1.40;1.30;;;;;;;8.37;100.00;99114.81;10343299;28;20157;-60
2022/02/09 15:35:14;;;;;;;2.95;1.35;;;;;;;8.31;100.00;99117.03;10341631;28;20478;-53
2022/02/09 15:40:32;;;;;;;1.57;1.47;;;;;;;8.29;100.00;99118.97;10359660;28;20041;-57
2022/02/09 15:56:23;;;;;;;1.00;0.80;;;;;;;8.24;100.00;99131.09;10339341;28;20077;-57
2022/02/09 16:23:13;;;;;;;1.10;1.00;;;;;;;8.16;100.00;99113.81;10359249;28;20145;-60
2022/02/09 16:34:00;;;;;;;2.28;0.82;;;;;;;8.18;100.00;99119.03;10363078;28;20054;-55
2022/02/09 16:44:32;;;;;;;1.00;0.90;;;;;;;8.15;100.00;99111.25;10347315;28;20132;-65
2022/02/09 16:49:44;;;;;;;1.00;0.90;;;;;;;8.14;100.00;99120.28;10362596;28;20045;-62
2022/02/09 16:54:56;;;;;;;2.00;0.90;;;;;;;8.14;100.00;99120.28;10359139;28;20108;-58
2022/02/09 17:21:24;;;;;;;1.30;1.20;;;;;;;8.08;100.00;99127.03;10360328;28;20117;-58
2022/02/09 17:26:29;;;;;;;2.35;1.10;;;;;;;8.02;100.00;99139.13;10361172;28;20054;-59
2022/02/09 17:31:45;;;;;;;1.45;0.90;;;;;;;8.04;100.00;99135.47;10343134;28;20049;-60
2022/02/09 17:37:08;;;;;;;1.83;1.10;;;;;;;8.06;100.00;99128.13;10361057;28;20122;-58
2022/02/09 17:58:20;;;;;;;1.00;0.90;;;;;;;7.97;100.00;99127.91;10359759;28;20137;-63
2022/02/09 18:03:24;;;;;;;2.00;1.10;;;;;;;7.96;100.00;99115.47;10355574;28;20041;-63
2022/02/09 18:09:01;;;;;;;1.13;1.02;;;;;;;7.95;100.00;99119.13;10357930;28;20097;-60
2022/02/09 18:14:37;;;;;;;1.70;1.00;;;;;;;7.93;100.00;99114.88;10357385;28;20116;-57
2022/02/09 18:30:41;;;;;;;1.45;0.93;;;;;;;8.01;100.00;99105.22;10314062;28;20053;-59
2022/02/09 18:46:32;;;;;;;2.33;1.90;;;;;;;7.93;100.00;99098.78;10359781;28;20122;-59
2022/02/09 18:57:25;;;;;;;2.72;2.10;;;;;;;7.87;100.00;99100.13;10358308;28;20145;-54
2022/02/09 19:02:45;;;;;;;1.77;1.67;;;;;;;7.85;100.00;99104.78;10357754;28;20120;-55
2022/02/09 19:18:51;;;;;;;3.78;1.88;;;;;;;7.75;100.00;99107.38;10256167;28;20097;-60
2022/02/09 19:47:01;;;;;;;3.08;2.03;;;;;;;7.62;100.00;99110.19;10339326;28;20049;-59
2022/02/09 19:52:12;;;;;;;2.72;2.10;;;;;;;7.59;100.00;99115.81;10358322;28;20141;-63
2022/02/09 19:57:19;;;;;;;2.40;2.00;;;;;;;7.55;100.00;99117.88;10368118;28;20065;-59
2022/02/09 20:02:24;;;;;;;2.50;1.67;;;;;;;7.48;100.00;99119.38;10367309;28;20477;-62
2022/02/09 20:07:27;;;;;;;2.15;1.40;;;;;;;7.46;100.00;99118.66;10365164;28;20049;-61
2022/02/09 20:12:36;;;;;;;1.42;1.20;;;;;;;7.40;100.00;99109.28;10365562;28;20097;-59
2022/02/09 20:17:40;;;;;;;1.98;1.40;;;;;;;7.38;100.00;99108.53;10367197;28;20602;-61
2022/02/09 20:22:44;;;;;;;2.45;1.65;;;;;;;7.43;100.00;99104.66;10367459;28;20053;-58
2022/02/09 20:27:52;;;;;;;3.13;2.00;;;;;;;7.45;100.00;99118.78;10366792;28;20081;-59
2022/02/09 20:32:59;;;;;;;2.63;2.30;;;;;;;7.48;100.00;99105.09;10366238;28;20457;-60
2022/02/09 20:38:02;;;;;;;3.15;2.08;;;;;;;7.49;100.00;99098.75;10364177;28;20069;-61
2022/02/09 20:43:09;;;;;;;4.80;2.13;;;;;;;7.45;100.00;99092.81;10366040;28;20049;-60
2022/02/09 20:48:15;;;;;;;2.30;1.70;;;;;;;7.47;100.00;99081.94;10364366;28;20049;-60
2022/02/09 20:53:19;;;;;;;3.72;2.08;;;;;;;7.47;100.00;99073.91;10362769;28;20422;-61
2022/02/09 20:58:25;;;;;;;2.10;1.90;;;;;;;7.46;100.00;99066.88;10365324;28;20050;-60
2022/02/09 21:03:43;;;;;;;2.00;1.40;;;;;;;7.46;100.00;99073.06;10363633;28;20077;-62
2022/02/09 21:08:55;;;;;;;2.13;1.45;;;;;;;7.50;100.00;99073.66;10364243;28;20049;-60
2022/02/09 21:14:08;;;;;;;;;;;;;;;7.46;100.00;99080.28;10347740;28;21049;-60
2022/02/09 21:19:32;;;;;;;2.40;1.30;;;;;;;7.47;100.00;99076.59;10362601;28;20521;-63
2022/02/09 21:25:03;;;;;;;2.35;1.48;;;;;;;7.46;100.00;99075.75;10345126;28;20502;-63
2022/02/09 21:52:26;;;;;;;2.47;1.92;;;;;;;7.44;100.00;99042.00;10339054;28;20597;-60
2022/02/09 21:57:38;;;;;;;2.60;1.70;;;;;;;7.43;100.00;99035.78;10363852;28;20089;-61
2022/02/09 22:30:01;;;;;;;2.20;1.13;;;;;;;7.50;100.00;98993.22;10307526;28;20078;-53
2022/02/09 22:46:02;;;;;;;2.97;1.50;;;;;;;7.50;100.00;99007.50;10366992;28;20077;-61
2022/02/09 22:56:29;;;;;;;3.15;1.40;;;;;;;7.50;100.00;98995.91;10367973;28;20426;-61
2022/02/09 23:01:38;;;;;;;2.35;1.50;;;;;;;7.52;100.00;98994.81;10366922;28;20076;-55
2022/02/09 23:06:51;;;;;;;3.45;1.40;;;;;;;7.51;100.00;98987.75;10403584;28;20053;-59
2022/02/09 23:55:19;;;;;;;2.47;1.70;;;;;;;7.47;100.00;98950.56;10339978;28;20155;-56
